createdAt,value
2023-05-12T00:00:03.949Z,23.89
2023-05-12T00:01:04.008Z,23.89
2023-05-12T00:02:04.026Z,23.89
2023-05-12T00:03:04.310Z,23.89
2023-05-12T00:04:04.313Z,23.89
2023-05-12T00:05:04.151Z,23.89
2023-05-12T00:06:04.226Z,23.88
2023-05-12T00:07:04.309Z,23.89
2023-05-12T00:08:04.302Z,23.89
2023-05-12T00:09:04.383Z,23.89
2023-05-12T00:10:04.492Z,23.88
2023-05-12T00:11:04.565Z,23.88
2023-05-12T00:12:04.551Z,23.88
2023-05-12T00:13:04.554Z,23.88
2023-05-12T00:14:04.685Z,23.88
2023-05-12T00:15:04.724Z,23.88
2023-05-12T00:16:04.760Z,23.88
2023-05-12T00:17:04.772Z,23.88
2023-05-12T00:18:04.917Z,23.88
2023-05-12T00:19:04.970Z,23.88
2023-05-12T00:20:04.884Z,23.87
2023-05-12T00:21:04.975Z,23.88
2023-05-12T00:22:05.025Z,23.88
2023-05-12T00:23:05.120Z,23.87
2023-05-12T00:24:05.150Z,23.88
2023-05-12T00:25:05.195Z,23.87
2023-05-12T00:26:05.201Z,23.87
2023-05-12T00:27:05.247Z,23.87
2023-05-12T00:28:05.352Z,23.87
2023-05-12T00:29:05.366Z,23.87
2023-05-12T00:30:05.383Z,23.87
2023-05-12T00:31:05.510Z,23.87
2023-05-12T00:32:05.527Z,23.88
2023-05-12T00:33:05.604Z,23.87
2023-05-12T00:34:05.616Z,23.88
2023-05-12T00:35:05.692Z,23.87
2023-05-12T00:36:05.713Z,23.87
2023-05-12T00:37:05.768Z,23.87
2023-05-12T00:38:05.796Z,23.87
2023-05-12T00:39:05.870Z,23.86
2023-05-12T00:40:05.942Z,23.87
2023-05-12T00:41:05.976Z,23.87
2023-05-12T00:42:06.022Z,23.86
2023-05-12T00:43:06.074Z,23.86
2023-05-12T00:44:06.153Z,23.87
2023-05-12T00:45:06.204Z,23.86
2023-05-12T00:46:06.346Z,23.86
2023-05-12T00:47:06.284Z,23.86
2023-05-12T00:48:06.380Z,23.86
2023-05-12T00:49:06.398Z,23.86
2023-05-12T00:50:06.500Z,23.86
2023-05-12T00:51:06.499Z,23.86
2023-05-12T00:52:06.564Z,23.86
2023-05-12T00:53:06.635Z,23.86
2023-05-12T00:54:06.686Z,23.85
2023-05-12T00:55:06.749Z,23.86
2023-05-12T00:56:06.777Z,23.86
2023-05-12T00:57:06.862Z,23.85
2023-05-12T00:58:06.897Z,23.86
2023-05-12T00:59:06.913Z,23.85
2023-05-12T01:00:07.019Z,23.86
2023-05-12T01:01:07.036Z,23.86
2023-05-12T01:02:07.197Z,23.85
2023-05-12T01:03:07.223Z,23.84
2023-05-12T01:04:07.338Z,23.84
2023-05-12T01:05:07.286Z,23.85
2023-05-12T01:06:07.294Z,23.84
2023-05-12T01:07:07.346Z,23.84
2023-05-12T01:08:07.405Z,23.85
2023-05-12T01:09:07.454Z,23.84
2023-05-12T01:10:07.509Z,23.84
2023-05-12T01:11:07.563Z,23.84
2023-05-12T01:12:07.602Z,23.84
2023-05-12T01:13:07.689Z,23.83
2023-05-12T01:14:07.716Z,23.83
2023-05-12T01:15:07.802Z,23.83
2023-05-12T01:16:07.824Z,23.83
2023-05-12T01:17:08.055Z,23.84
2023-05-12T01:18:07.976Z,23.83
2023-05-12T01:19:08.008Z,23.83
2023-05-12T01:20:08.047Z,23.84
2023-05-12T01:21:08.086Z,23.83
2023-05-12T01:22:08.157Z,23.84
2023-05-12T01:23:08.263Z,23.83
2023-05-12T01:24:08.275Z,23.83
2023-05-12T01:25:08.395Z,23.83
2023-05-12T01:26:08.384Z,23.83
2023-05-12T01:27:08.417Z,23.83
2023-05-12T01:28:08.511Z,23.83
2023-05-12T01:29:08.558Z,23.83
2023-05-12T01:30:08.598Z,23.83
2023-05-12T01:31:08.666Z,23.83
2023-05-12T01:32:08.739Z,23.83
2023-05-12T01:33:08.795Z,23.83
2023-05-12T01:34:08.849Z,23.83
2023-05-12T01:35:08.902Z,23.83
2023-05-12T01:36:08.941Z,23.82
2023-05-12T01:37:09.016Z,23.83
2023-05-12T01:38:09.088Z,23.83
2023-05-12T01:39:09.077Z,23.83
2023-05-12T01:40:09.163Z,23.82
2023-05-12T01:41:09.221Z,23.82
2023-05-12T01:42:09.253Z,23.82
2023-05-12T01:43:09.329Z,23.82
2023-05-12T01:44:09.357Z,23.82
2023-05-12T01:45:09.482Z,23.82
2023-05-12T01:46:09.572Z,23.82
2023-05-12T01:47:09.552Z,23.81
2023-05-12T01:48:09.586Z,23.82
2023-05-12T01:49:09.641Z,23.82
2023-05-12T01:50:09.684Z,23.81
2023-05-12T01:51:09.780Z,23.81
2023-05-12T01:52:09.809Z,23.81
2023-05-12T01:53:09.880Z,23.81
2023-05-12T01:54:09.919Z,23.81
2023-05-12T01:55:09.934Z,23.81
2023-05-12T01:56:10.023Z,23.82
2023-05-12T01:57:10.089Z,23.81
2023-05-12T01:58:10.107Z,23.81
2023-05-12T01:59:10.212Z,23.82
2023-05-12T02:00:10.232Z,23.81
2023-05-12T02:01:10.306Z,23.82
2023-05-12T02:02:10.389Z,23.81
2023-05-12T02:03:10.461Z,23.81
2023-05-12T02:04:10.543Z,23.81
2023-05-12T02:05:10.539Z,23.82
2023-05-12T02:06:10.601Z,23.81
2023-05-12T02:07:10.605Z,23.81
2023-05-12T02:08:10.720Z,23.80
2023-05-12T02:09:10.721Z,23.80
2023-05-12T02:10:10.793Z,23.81
2023-05-12T02:11:10.867Z,23.80
2023-05-12T02:12:10.903Z,23.81
2023-05-12T02:13:10.949Z,23.81
2023-05-12T02:14:11.015Z,23.81
2023-05-12T02:15:11.058Z,23.81
2023-05-12T02:16:11.139Z,23.81
2023-05-12T02:17:11.174Z,23.80
2023-05-12T02:18:11.294Z,23.81
2023-05-12T02:19:11.283Z,23.80
2023-05-12T02:20:11.320Z,23.80
2023-05-12T02:21:11.413Z,23.80
2023-05-12T02:22:11.481Z,23.80
2023-05-12T02:23:11.486Z,23.80
2023-05-12T02:24:13.625Z,23.80
2023-05-12T02:25:11.561Z,23.80
2023-05-12T02:26:11.551Z,23.80
2023-05-12T02:27:11.582Z,23.80
2023-05-12T02:28:11.525Z,23.80
2023-05-12T02:29:11.498Z,23.80
2023-05-12T02:30:11.540Z,23.80
2023-05-12T02:31:11.507Z,23.80
2023-05-12T02:32:11.546Z,23.79
2023-05-12T02:33:11.465Z,23.80
2023-05-12T02:34:11.468Z,23.80
2023-05-12T02:35:11.469Z,23.79
2023-05-12T02:36:11.461Z,23.79
2023-05-12T02:37:11.446Z,23.78
2023-05-12T02:38:11.471Z,23.79
2023-05-12T02:39:11.441Z,23.79
2023-05-12T02:40:11.436Z,23.79
2023-05-12T02:41:11.420Z,23.79
2023-05-12T02:42:11.448Z,23.79
2023-05-12T02:43:11.414Z,23.79
2023-05-12T02:44:11.401Z,23.79
2023-05-12T02:45:11.400Z,23.78
2023-05-12T02:46:11.434Z,23.78
2023-05-12T02:47:11.403Z,23.79
2023-05-12T02:48:11.407Z,23.78
2023-05-12T02:49:11.340Z,23.78
2023-05-12T02:50:11.414Z,23.78
2023-05-12T02:51:11.357Z,23.78
2023-05-12T02:52:11.350Z,23.78
2023-05-12T02:53:11.373Z,23.78
2023-05-12T02:54:11.340Z,23.77
2023-05-12T02:55:11.341Z,23.78
2023-05-12T02:56:11.362Z,23.78
2023-05-12T02:57:11.308Z,23.78
2023-05-12T02:58:11.343Z,23.77
2023-05-12T02:59:11.302Z,23.78
2023-05-12T03:00:11.378Z,23.78
2023-05-12T03:01:11.872Z,23.78
2023-05-12T03:02:11.609Z,23.77
2023-05-12T03:03:11.657Z,23.77
2023-05-12T03:04:11.612Z,23.77
2023-05-12T03:05:11.710Z,23.77
2023-05-12T03:06:11.774Z,23.78
2023-05-12T03:07:11.845Z,23.77
2023-05-12T03:08:11.861Z,23.77
2023-05-12T03:09:11.908Z,23.77
2023-05-12T03:10:11.979Z,23.77
2023-05-12T03:11:12.064Z,23.77
2023-05-12T03:12:12.112Z,23.76
2023-05-12T03:13:12.191Z,23.77
2023-05-12T03:14:12.225Z,23.77
2023-05-12T03:15:12.325Z,23.77
2023-05-12T03:16:12.397Z,23.77
2023-05-12T03:17:12.469Z,23.77
2023-05-12T03:18:12.544Z,23.77
2023-05-12T03:19:12.570Z,23.77
2023-05-12T03:20:12.643Z,23.76
2023-05-12T03:21:12.696Z,23.76
2023-05-12T03:22:12.741Z,23.76
2023-05-12T03:23:12.851Z,23.76
2023-05-12T03:24:12.868Z,23.76
2023-05-12T03:25:12.949Z,23.77
2023-05-12T03:26:12.974Z,23.76
2023-05-12T03:27:13.004Z,23.76
2023-05-12T03:28:13.114Z,23.76
2023-05-12T03:29:13.295Z,23.76
2023-05-12T03:30:13.249Z,23.76
2023-05-12T03:31:13.347Z,23.76
2023-05-12T03:32:13.432Z,23.75
2023-05-12T03:33:13.363Z,23.76
2023-05-12T03:34:13.471Z,23.76
2023-05-12T03:35:13.555Z,23.76
2023-05-12T03:36:13.582Z,23.76
2023-05-12T03:37:13.662Z,23.75
2023-05-12T03:38:13.708Z,23.76
2023-05-12T03:39:13.738Z,23.76
2023-05-12T03:40:13.807Z,23.76
2023-05-12T03:41:13.883Z,23.76
2023-05-12T03:42:13.939Z,23.75
2023-05-12T03:43:13.979Z,23.75
2023-05-12T03:44:14.207Z,23.76
2023-05-12T03:45:14.123Z,23.76
2023-05-12T03:46:14.246Z,23.75
2023-05-12T03:47:14.296Z,23.75
2023-05-12T03:48:14.308Z,23.75
2023-05-12T03:49:14.311Z,23.75
2023-05-12T03:50:14.412Z,23.75
2023-05-12T03:51:14.466Z,23.75
2023-05-12T03:52:14.542Z,23.75
2023-05-12T03:53:14.596Z,23.74
2023-05-12T03:54:14.649Z,23.75
2023-05-12T03:55:14.725Z,23.75
2023-05-12T03:56:14.772Z,23.75
2023-05-12T03:57:14.821Z,23.74
2023-05-12T03:58:14.930Z,23.74
2023-05-12T03:59:14.928Z,23.74
2023-05-12T04:00:15.024Z,23.75
2023-05-12T04:01:15.092Z,23.74
2023-05-12T04:02:15.142Z,23.75
2023-05-12T04:03:15.294Z,23.74
2023-05-12T04:04:15.434Z,23.75
2023-05-12T04:05:15.298Z,23.75
2023-05-12T04:06:15.366Z,23.74
2023-05-12T04:07:15.447Z,23.74
2023-05-12T04:08:15.491Z,23.74
2023-05-12T04:09:15.559Z,23.73
2023-05-12T04:10:15.598Z,23.72
2023-05-12T04:11:15.635Z,23.73
2023-05-12T04:12:15.751Z,23.72
2023-05-12T04:13:15.747Z,23.72
2023-05-12T04:14:15.862Z,23.73
2023-05-12T04:15:15.900Z,23.73
2023-05-12T04:16:15.996Z,23.73
2023-05-12T04:17:16.025Z,23.71
2023-05-12T04:18:16.071Z,23.70
2023-05-12T04:19:16.127Z,23.69
2023-05-12T04:20:16.199Z,23.68
2023-05-12T04:21:16.253Z,23.67
2023-05-12T04:22:16.290Z,23.66
2023-05-12T04:23:16.343Z,23.65
2023-05-12T04:24:16.439Z,23.65
2023-05-12T04:25:16.530Z,23.65
2023-05-12T04:26:16.528Z,23.65
2023-05-12T04:27:16.641Z,23.64
2023-05-12T04:28:16.667Z,23.63
2023-05-12T04:29:16.709Z,23.62
2023-05-12T04:30:16.791Z,23.63
2023-05-12T04:31:16.824Z,23.63
2023-05-12T04:32:16.992Z,23.62
2023-05-12T04:33:16.956Z,23.61
2023-05-12T04:34:16.992Z,23.61
2023-05-12T04:35:17.089Z,23.61
2023-05-12T04:36:17.116Z,23.62
2023-05-12T04:37:17.152Z,23.62
2023-05-12T04:38:17.224Z,23.62
2023-05-12T04:39:17.306Z,23.63
2023-05-12T04:40:17.363Z,23.63
2023-05-12T04:41:17.428Z,23.62
2023-05-12T04:42:17.419Z,23.63
2023-05-12T04:44:17.468Z,23.65
2023-05-12T04:45:17.626Z,23.65
2023-05-12T04:46:17.566Z,23.65
2023-05-12T04:47:17.499Z,23.65
2023-05-12T04:48:17.463Z,23.66
2023-05-12T04:49:17.463Z,23.67
2023-05-12T04:50:17.478Z,23.66
2023-05-12T04:51:17.494Z,23.67
2023-05-12T04:52:17.454Z,23.68
2023-05-12T04:53:17.457Z,23.68
2023-05-12T04:54:17.456Z,23.69
2023-05-12T04:55:17.467Z,23.69
2023-05-12T04:56:17.422Z,23.71
2023-05-12T04:57:17.439Z,23.70
2023-05-12T04:58:17.428Z,23.70
2023-05-12T04:59:17.417Z,23.71
2023-05-12T05:00:17.394Z,23.71
2023-05-12T05:01:17.444Z,23.72
2023-05-12T05:02:17.410Z,23.73
2023-05-12T05:03:17.536Z,23.73
2023-05-12T05:04:17.378Z,23.73
2023-05-12T05:05:17.383Z,23.73
2023-05-12T05:06:17.329Z,23.73
2023-05-12T05:07:17.345Z,23.74
2023-05-12T05:08:17.352Z,23.74
2023-05-12T05:09:17.310Z,23.74
2023-05-12T05:10:17.298Z,23.75
2023-05-12T05:11:17.287Z,23.74
2023-05-12T05:12:17.291Z,23.75
2023-05-12T05:13:17.302Z,23.75
2023-05-12T05:14:17.312Z,23.75
2023-05-12T05:15:17.500Z,23.75
2023-05-12T05:16:17.334Z,23.76
2023-05-12T05:17:17.294Z,23.76
2023-05-12T05:18:17.245Z,23.76
2023-05-12T05:19:23.356Z,23.77
2023-05-12T05:20:19.711Z,23.77
2023-05-12T05:21:17.461Z,23.77
2023-05-12T05:22:17.515Z,23.78
2023-05-12T05:23:17.520Z,23.78
2023-05-12T05:24:17.556Z,23.78
2023-05-12T05:25:17.823Z,23.79
2023-05-12T05:26:17.678Z,23.79
2023-05-12T05:27:17.733Z,23.80
2023-05-12T05:28:17.888Z,23.80
2023-05-12T05:29:17.869Z,23.81
2023-05-12T05:30:17.915Z,23.81
2023-05-12T05:31:18.096Z,23.81
2023-05-12T05:32:18.020Z,23.83
2023-05-12T05:33:18.156Z,23.85
2023-05-12T05:34:18.154Z,23.85
2023-05-12T05:35:18.310Z,23.87
2023-05-12T05:36:18.268Z,23.90
2023-05-12T05:37:18.306Z,23.93
2023-05-12T05:38:20.117Z,23.95
2023-05-12T05:39:18.374Z,23.98
2023-05-12T05:40:18.448Z,24.02
2023-05-12T05:41:18.476Z,24.05
2023-05-12T05:42:18.473Z,24.05
2023-05-12T05:43:18.628Z,24.07
2023-05-12T05:44:18.583Z,24.10
2023-05-12T05:45:19.023Z,24.12
2023-05-12T05:46:18.728Z,24.16
2023-05-12T05:47:18.693Z,24.17
2023-05-12T05:48:18.769Z,24.21
2023-05-12T05:49:18.745Z,24.24
2023-05-12T05:50:18.798Z,24.26
2023-05-12T05:51:18.872Z,24.28
2023-05-12T05:52:18.847Z,24.30
2023-05-12T05:53:19.522Z,24.33
2023-05-12T05:54:18.873Z,24.36
2023-05-12T05:55:19.309Z,24.39
2023-05-12T05:56:19.090Z,24.44
2023-05-12T05:57:18.921Z,24.48
2023-05-12T05:58:19.053Z,24.51
2023-05-12T05:59:18.946Z,24.54
2023-05-12T06:00:19.044Z,24.57
2023-05-12T06:01:18.902Z,24.59
2023-05-12T06:02:18.912Z,24.64
2023-05-12T06:03:19.019Z,24.68
2023-05-12T06:04:19.135Z,24.72
2023-05-12T06:05:19.008Z,24.77
2023-05-12T06:06:18.984Z,24.82
2023-05-12T06:07:20.533Z,24.88
2023-05-12T06:08:19.130Z,24.92
2023-05-12T06:09:19.161Z,24.97
2023-05-12T06:10:19.389Z,25.03
2023-05-12T06:11:19.315Z,25.04
2023-05-12T06:12:21.063Z,25.04
2023-05-12T06:13:19.393Z,25.03
2023-05-12T06:14:19.437Z,25.03
2023-05-12T06:15:19.591Z,25.04
2023-05-12T06:16:19.767Z,25.04
2023-05-12T06:17:19.699Z,25.05
2023-05-12T06:18:19.661Z,25.06
2023-05-12T06:19:19.713Z,25.07
2023-05-12T06:20:19.758Z,25.09
2023-05-12T06:21:19.821Z,25.10
2023-05-12T06:22:19.822Z,25.10
2023-05-12T06:23:19.876Z,25.11
2023-05-12T06:24:19.874Z,25.11
2023-05-12T06:25:20.182Z,25.12
2023-05-12T06:26:20.046Z,25.12
2023-05-12T06:27:20.011Z,25.12
2023-05-12T06:28:20.063Z,25.13
2023-05-12T06:29:20.075Z,25.13
2023-05-12T06:30:20.133Z,25.11
2023-05-12T06:31:20.264Z,25.11
2023-05-12T06:32:20.228Z,25.10
2023-05-12T06:33:20.396Z,25.08
2023-05-12T06:34:20.526Z,25.09
2023-05-12T06:35:20.619Z,25.08
2023-05-12T06:36:20.339Z,25.07
2023-05-12T06:37:20.426Z,25.07
2023-05-12T06:38:20.511Z,25.07
2023-05-12T06:39:20.528Z,25.04
2023-05-12T06:40:20.552Z,25.02
2023-05-12T06:41:20.659Z,25.01
2023-05-12T06:42:20.758Z,24.99
2023-05-12T06:43:21.095Z,24.99
2023-05-12T06:44:20.842Z,24.95
2023-05-12T06:45:21.334Z,24.94
2023-05-12T06:46:21.022Z,24.95
2023-05-12T06:47:21.032Z,24.94
2023-05-12T06:48:21.070Z,24.95
2023-05-12T06:49:21.208Z,24.97
2023-05-12T06:50:21.233Z,24.97
2023-05-12T06:51:21.599Z,24.99
2023-05-12T06:52:21.593Z,24.99
2023-05-12T06:53:23.999Z,24.99
2023-05-12T06:54:21.400Z,25.00
2023-05-12T06:55:21.720Z,24.99
2023-05-12T06:56:21.397Z,24.97
2023-05-12T06:57:21.376Z,24.96
2023-05-12T06:58:21.375Z,24.97
2023-05-12T06:59:21.493Z,24.98
2023-05-12T07:00:21.383Z,25.00
2023-05-12T07:01:21.363Z,25.01
2023-05-12T07:02:21.357Z,25.01
2023-05-12T07:03:21.320Z,25.02
2023-05-12T07:04:21.319Z,25.02
2023-05-12T07:05:21.588Z,25.02
2023-05-12T07:06:21.289Z,25.04
2023-05-12T07:07:22.082Z,25.04
2023-05-12T07:08:22.544Z,25.04
2023-05-12T07:09:21.288Z,25.05
2023-05-12T07:10:21.253Z,25.06
2023-05-12T07:11:21.322Z,25.07
2023-05-12T07:12:21.235Z,25.08
2023-05-12T07:13:21.216Z,25.08
2023-05-12T07:14:21.241Z,25.08
2023-05-12T07:15:21.486Z,25.09
2023-05-12T07:16:21.252Z,25.10
2023-05-12T07:17:21.304Z,25.11
2023-05-12T07:18:21.264Z,25.10
2023-05-12T07:19:21.172Z,25.11
2023-05-12T07:20:21.226Z,25.11
2023-05-12T07:21:21.227Z,25.11
2023-05-12T07:22:21.157Z,25.12
2023-05-12T07:23:21.153Z,25.12
2023-05-12T07:24:21.181Z,25.13
2023-05-12T07:25:21.340Z,25.14
2023-05-12T07:26:21.592Z,25.15
2023-05-12T07:27:21.169Z,25.17
2023-05-12T07:28:21.119Z,25.19
2023-05-12T07:29:21.177Z,25.23
2023-05-12T07:30:21.124Z,25.26
2023-05-12T07:31:22.691Z,25.29
2023-05-12T07:32:21.109Z,25.30
2023-05-12T07:33:21.142Z,25.32
2023-05-12T07:34:21.202Z,25.29
2023-05-12T07:35:21.443Z,25.23
2023-05-12T07:36:22.064Z,25.18
2023-05-12T07:37:21.334Z,25.15
2023-05-12T07:38:21.338Z,25.13
2023-05-12T07:39:21.415Z,25.08
2023-05-12T07:40:21.476Z,25.01
2023-05-12T07:41:21.548Z,24.94
2023-05-12T07:42:21.605Z,24.86
2023-05-12T07:43:21.660Z,24.79
2023-05-12T07:44:21.606Z,24.72
2023-05-12T07:45:21.733Z,24.68
2023-05-12T07:46:21.734Z,24.65
2023-05-12T07:47:21.611Z,24.60
2023-05-12T07:48:21.613Z,24.57
2023-05-12T07:49:21.609Z,24.53
2023-05-12T07:50:21.617Z,24.49
2023-05-12T07:51:21.618Z,24.46
2023-05-12T07:52:21.677Z,24.43
2023-05-12T07:53:21.693Z,24.41
2023-05-12T07:54:21.694Z,24.39
2023-05-12T07:55:21.904Z,24.37
2023-05-12T07:56:21.728Z,24.35
2023-05-12T07:57:21.772Z,24.34
2023-05-12T07:58:21.770Z,24.33
2023-05-12T07:59:21.809Z,24.31
2023-05-12T08:00:21.822Z,24.30
2023-05-12T08:01:21.870Z,24.29
2023-05-12T08:02:21.898Z,24.27
2023-05-12T08:03:22.117Z,24.26
2023-05-12T08:04:22.005Z,24.24
2023-05-12T08:05:22.177Z,24.24
2023-05-12T08:06:22.000Z,24.22
2023-05-12T08:07:22.072Z,24.21
2023-05-12T08:08:22.150Z,24.21
2023-05-12T08:09:22.123Z,24.20
2023-05-12T08:10:22.124Z,24.19
2023-05-12T08:11:22.162Z,24.19
2023-05-12T08:12:22.206Z,24.18
2023-05-12T08:13:22.258Z,24.18
2023-05-12T08:14:22.296Z,24.18
2023-05-12T08:15:22.568Z,24.17
2023-05-12T08:16:22.390Z,24.18
2023-05-12T08:17:22.431Z,24.19
2023-05-12T08:18:22.466Z,24.19
2023-05-12T08:19:22.483Z,24.20
2023-05-12T08:20:22.549Z,24.21
2023-05-12T08:21:22.559Z,24.20
2023-05-12T08:22:22.545Z,24.19
2023-05-12T08:23:22.611Z,24.18
2023-05-12T08:24:22.633Z,24.16
2023-05-12T08:25:22.813Z,24.17
2023-05-12T08:26:23.154Z,24.18
2023-05-12T08:27:22.760Z,24.17
2023-05-12T08:28:22.764Z,24.15
2023-05-12T08:29:22.817Z,24.13
2023-05-12T08:30:22.916Z,24.08
2023-05-12T08:31:22.950Z,24.02
2023-05-12T08:32:22.984Z,23.96
2023-05-12T08:33:23.032Z,23.92
2023-05-12T08:34:23.048Z,23.91
2023-05-12T08:35:23.193Z,23.89
2023-05-12T08:36:23.161Z,23.87
2023-05-12T08:37:23.233Z,23.85
2023-05-12T08:38:23.293Z,23.83
2023-05-12T08:39:23.354Z,23.81
2023-05-12T08:40:23.479Z,23.77
2023-05-12T08:41:23.490Z,23.76
2023-05-12T08:42:23.545Z,23.78
2023-05-12T08:43:23.560Z,23.77
2023-05-12T08:44:23.624Z,23.73
2023-05-12T08:45:23.655Z,23.67
2023-05-12T08:46:23.704Z,23.64
2023-05-12T08:47:24.138Z,23.64
2023-05-12T08:48:23.731Z,23.66
2023-05-12T08:49:23.757Z,23.70
2023-05-12T08:50:23.779Z,23.73
2023-05-12T08:51:23.922Z,23.78
2023-05-12T08:52:23.919Z,23.80
2023-05-12T08:53:23.994Z,23.83
2023-05-12T08:54:24.035Z,23.85
2023-05-12T08:55:27.456Z,23.87
2023-05-12T08:57:24.058Z,23.91
2023-05-12T08:58:30.574Z,23.92
2023-05-12T08:59:25.070Z,23.93
2023-05-12T09:00:24.167Z,23.94
2023-05-12T09:01:24.115Z,23.95
2023-05-12T09:02:24.848Z,23.98
2023-05-12T09:03:24.020Z,24.00
2023-05-12T09:04:24.039Z,24.01
2023-05-12T09:05:24.135Z,24.02
2023-05-12T09:06:23.988Z,24.02
2023-05-12T09:07:23.988Z,24.02
2023-05-12T09:08:23.986Z,24.03
2023-05-12T09:09:24.094Z,24.04
2023-05-12T09:11:25.651Z,24.04
2023-05-12T09:12:24.082Z,24.06
2023-05-12T09:13:24.161Z,24.07
2023-05-12T09:14:25.053Z,24.06
2023-05-12T09:15:24.063Z,24.09
2023-05-12T09:16:24.150Z,24.10
2023-05-12T09:17:24.206Z,24.11
2023-05-12T09:18:24.063Z,24.10
2023-05-12T09:19:24.055Z,24.11
2023-05-12T09:20:31.356Z,24.13
2023-05-12T09:21:25.008Z,24.15
2023-05-12T09:22:23.996Z,24.17
2023-05-12T09:23:24.006Z,24.18
2023-05-12T09:24:23.983Z,24.18
2023-05-12T09:25:24.637Z,24.20
2023-05-12T09:26:24.018Z,24.23
2023-05-12T09:27:23.976Z,24.26
2023-05-12T09:28:23.989Z,24.28
2023-05-12T09:29:31.742Z,24.31
2023-05-12T09:30:24.929Z,24.30
2023-05-12T09:31:23.962Z,24.28
2023-05-12T09:32:23.981Z,24.24
2023-05-12T09:33:23.964Z,24.20
2023-05-12T09:34:23.924Z,24.17
2023-05-12T09:35:23.988Z,24.13
2023-05-12T09:36:23.913Z,24.12
2023-05-12T09:37:23.892Z,24.13
2023-05-12T09:38:23.872Z,24.11
2023-05-12T09:39:23.929Z,24.08
2023-05-12T09:40:23.860Z,24.05
2023-05-12T09:41:23.867Z,24.02
2023-05-12T09:42:23.838Z,24.00
2023-05-12T09:43:23.904Z,23.97
2023-05-12T09:44:23.958Z,23.91
2023-05-12T09:45:23.996Z,23.83
2023-05-12T09:46:24.073Z,23.77
2023-05-12T09:47:24.138Z,23.70
2023-05-12T09:48:26.836Z,23.65
2023-05-12T09:49:24.152Z,23.60
2023-05-12T09:50:24.126Z,23.55
2023-05-12T09:51:24.136Z,23.52
2023-05-12T09:52:24.152Z,23.52
2023-05-12T09:53:24.291Z,23.45
2023-05-12T09:54:24.134Z,23.38
2023-05-12T09:55:24.116Z,23.30
2023-05-12T09:56:24.120Z,23.26
2023-05-12T09:57:24.078Z,23.26
2023-05-12T09:58:24.105Z,23.27
2023-05-12T09:59:24.118Z,23.29
2023-05-12T10:00:36.972Z,23.28
2023-05-12T10:01:25.234Z,23.29
2023-05-12T10:02:24.286Z,23.27
2023-05-12T10:03:24.072Z,23.25
2023-05-12T10:04:24.089Z,23.24
2023-05-12T10:05:24.025Z,23.24
2023-05-12T10:06:24.034Z,23.23
2023-05-12T10:07:24.008Z,23.13
2023-05-12T10:08:23.990Z,23.11
2023-05-12T10:09:24.028Z,23.12
2023-05-12T10:10:24.175Z,23.14
2023-05-12T10:11:24.014Z,23.16
2023-05-12T10:12:23.971Z,23.19
2023-05-12T10:13:23.975Z,23.18
2023-05-12T10:14:23.940Z,23.21
2023-05-12T10:15:23.967Z,23.20
2023-05-12T10:16:24.005Z,23.19
2023-05-12T10:17:23.980Z,23.18
2023-05-12T10:18:23.998Z,23.17
2023-05-12T10:19:23.913Z,23.16
2023-05-12T10:20:23.924Z,23.17
2023-05-12T10:21:23.909Z,23.20
2023-05-12T10:22:23.901Z,23.27
2023-05-12T10:23:23.878Z,23.33
2023-05-12T10:24:23.889Z,23.40
2023-05-12T10:25:24.197Z,23.46
2023-05-12T10:26:23.918Z,23.46
2023-05-12T10:27:24.083Z,23.50
2023-05-12T10:28:24.064Z,23.55
2023-05-12T10:29:24.127Z,23.59
2023-05-12T10:30:24.157Z,23.62
2023-05-12T10:31:24.284Z,23.64
2023-05-12T10:32:24.289Z,23.67
2023-05-12T10:33:24.294Z,23.70
2023-05-12T10:34:24.321Z,23.71
2023-05-12T10:35:24.407Z,23.71
2023-05-12T10:36:24.429Z,23.72
2023-05-12T10:37:24.522Z,23.73
2023-05-12T10:38:24.549Z,23.74
2023-05-12T10:39:24.605Z,23.77
2023-05-12T10:40:24.668Z,23.79
2023-05-12T10:41:24.708Z,23.81
2023-05-12T10:42:24.792Z,23.83
2023-05-12T10:43:24.919Z,23.85
2023-05-12T10:44:24.903Z,23.88
2023-05-12T10:45:25.159Z,23.90
2023-05-12T10:46:25.160Z,23.93
2023-05-12T10:47:25.127Z,23.95
2023-05-12T10:48:25.180Z,23.96
2023-05-12T10:49:25.193Z,23.95
2023-05-12T10:50:25.254Z,23.96
2023-05-12T10:51:25.335Z,23.96
2023-05-12T10:52:25.368Z,23.94
2023-05-12T10:53:28.645Z,23.94
2023-05-12T10:54:26.437Z,23.94
2023-05-12T10:55:25.771Z,23.94
2023-05-12T10:56:25.722Z,23.95
2023-05-12T10:57:25.528Z,23.97
2023-05-12T10:58:25.923Z,23.98
2023-05-12T10:59:25.933Z,23.99
2023-05-12T11:00:25.887Z,24.00
2023-05-12T11:01:26.224Z,24.00
2023-05-12T11:02:26.255Z,24.01
2023-05-12T11:03:26.164Z,24.02
2023-05-12T11:04:25.486Z,24.03
2023-05-12T11:05:25.702Z,24.03
2023-05-12T11:06:25.750Z,24.05
2023-05-12T11:07:26.300Z,24.05
2023-05-12T11:08:26.698Z,24.06
2023-05-12T11:09:26.897Z,24.06
2023-05-12T11:10:26.619Z,24.07
2023-05-12T11:11:25.831Z,24.09
2023-05-12T11:12:25.779Z,24.09
2023-05-12T11:13:25.846Z,24.10
2023-05-12T11:14:25.928Z,24.12
2023-05-12T11:15:25.963Z,24.12
2023-05-12T11:16:26.043Z,24.12
2023-05-12T11:17:26.219Z,24.14
2023-05-12T11:18:26.108Z,24.15
2023-05-12T11:19:26.141Z,24.15
2023-05-12T11:20:27.581Z,24.15
2023-05-12T11:21:26.167Z,24.16
2023-05-12T11:22:26.146Z,24.17
2023-05-12T11:23:26.124Z,24.18
2023-05-12T11:24:26.146Z,24.17
2023-05-12T11:25:26.204Z,24.19
2023-05-12T11:26:26.097Z,24.20
2023-05-12T11:27:26.087Z,24.20
2023-05-12T11:28:26.109Z,24.22
2023-05-12T11:29:26.091Z,24.23
2023-05-12T11:30:26.097Z,24.24
2023-05-12T11:31:26.244Z,24.26
2023-05-12T11:32:26.207Z,24.27
2023-05-12T11:33:26.053Z,24.29
2023-05-12T11:34:26.081Z,24.31
2023-05-12T11:35:26.100Z,24.33
2023-05-12T11:36:26.191Z,24.33
2023-05-12T11:37:26.020Z,24.35
2023-05-12T11:38:26.022Z,24.37
2023-05-12T11:39:26.035Z,24.39
2023-05-12T11:40:25.991Z,24.41
2023-05-12T11:41:25.996Z,24.42
2023-05-12T11:42:26.081Z,24.44
2023-05-12T11:43:25.995Z,24.45
2023-05-12T11:44:26.000Z,24.45
2023-05-12T11:45:26.004Z,24.47
2023-05-12T11:46:26.000Z,24.47
2023-05-12T11:47:26.030Z,24.48
2023-05-12T11:48:25.944Z,24.49
2023-05-12T11:49:25.945Z,24.50
2023-05-12T11:50:26.032Z,24.51
2023-05-12T11:51:25.969Z,24.52
2023-05-12T11:52:25.912Z,24.53
2023-05-12T11:53:27.583Z,24.55
2023-05-12T11:54:25.963Z,24.54
2023-05-12T11:55:26.019Z,24.55
2023-05-12T11:56:25.953Z,24.55
2023-05-12T11:57:25.922Z,24.57
2023-05-12T11:58:25.890Z,24.58
2023-05-12T11:59:25.878Z,24.58
2023-05-12T12:00:25.871Z,24.57
2023-05-12T12:01:25.900Z,24.55
2023-05-12T12:02:25.927Z,24.56
2023-05-12T12:03:25.977Z,24.57
2023-05-12T12:04:25.863Z,24.58
2023-05-12T12:05:25.873Z,24.62
2023-05-12T12:06:25.803Z,24.63
2023-05-12T12:07:25.807Z,24.65
2023-05-12T12:08:25.824Z,24.67
2023-05-12T12:09:25.780Z,24.68
2023-05-12T12:10:25.786Z,24.69
2023-05-12T12:11:25.804Z,24.72
2023-05-12T12:12:25.783Z,24.74
2023-05-12T12:13:25.784Z,24.76
2023-05-12T12:14:25.745Z,24.78
2023-05-12T12:15:25.785Z,24.80
2023-05-12T12:16:25.843Z,24.83
2023-05-12T12:17:25.804Z,24.85
2023-05-12T12:18:25.783Z,24.88
2023-05-12T12:19:25.762Z,24.91
2023-05-12T12:20:25.770Z,24.93
2023-05-12T12:21:25.720Z,24.96
2023-05-12T12:22:25.797Z,24.98
2023-05-12T12:23:25.826Z,25.00
2023-05-12T12:24:25.891Z,25.03
2023-05-12T12:25:25.945Z,25.04
2023-05-12T12:26:25.996Z,25.05
2023-05-12T12:27:26.062Z,25.07
2023-05-12T12:28:26.115Z,25.08
2023-05-12T12:29:26.262Z,25.09
2023-05-12T12:30:26.238Z,25.11
2023-05-12T12:31:26.360Z,25.11
2023-05-12T12:32:26.405Z,25.13
2023-05-12T12:33:26.379Z,25.14
2023-05-12T12:34:26.459Z,25.15
2023-05-12T12:35:26.502Z,25.15
2023-05-12T12:36:26.560Z,25.16
2023-05-12T12:37:26.610Z,25.18
2023-05-12T12:38:26.675Z,25.18
2023-05-12T12:39:26.737Z,25.19
2023-05-12T12:40:26.835Z,25.20
2023-05-12T12:41:26.928Z,25.21
2023-05-12T12:42:26.910Z,25.23
2023-05-12T12:43:26.938Z,25.24
2023-05-12T12:44:27.012Z,25.25
2023-05-12T12:45:27.304Z,25.26
2023-05-12T12:46:27.114Z,25.26
2023-05-12T12:47:27.145Z,25.27
2023-05-12T12:48:27.176Z,25.29
2023-05-12T12:49:27.236Z,25.30
2023-05-12T12:50:27.461Z,25.30
2023-05-12T12:51:38.464Z,25.32
2023-05-12T12:52:28.362Z,25.32
2023-05-12T12:53:27.313Z,25.33
2023-05-12T12:54:27.577Z,25.34
2023-05-12T12:55:27.335Z,25.33